RJSR METAR and TAF | Updated Today

RJSR METAR

Odate Noshiro Airport

Observation time: 10:02 hr. ago

RJSR 291000Z 17002KT 9999 FEW025 BKN/// 16/16 Q1014

Need help? Read our tutorial on how to read METARs or read the parsed version below.

Odate Noshiro Airport (RJSR) METAR

  • Weather conditions on Thu, 29 Sep 2022 10:00:00 +0000 (10:02 hr. ago):
  • Present conditions: Dry
  • Clouds: A few at 762 meters; broken sky
  • Visibility: Greater than 10 km
  • Wind: 170 degrees at 2 knots
  • Temperature: 16 celsius
  • Dew point: 16 celsius
  • Pressure: 1014 millibars
  • Remarks: None


Useful to know...